sensor_id;sensor_type;location;lat;lon;timestamp;temperature;humidity
19090;DHT22;9677;50.656;13.064;2023-08-24T00:01:17;23.60;47.20
19090;DHT22;9677;50.656;13.064;2023-08-24T00:03:46;23.80;47.30
19090;DHT22;9677;50.656;13.064;2023-08-24T00:06:14;23.50;47.30
19090;DHT22;9677;50.656;13.064;2023-08-24T00:08:43;23.40;47.40
19090;DHT22;9677;50.656;13.064;2023-08-24T00:11:11;23.30;47.50
19090;DHT22;9677;50.656;13.064;2023-08-24T00:13:42;23.30;47.50
19090;DHT22;9677;50.656;13.064;2023-08-24T00:16:17;23.30;47.60
19090;DHT22;9677;50.656;13.064;2023-08-24T00:18:46;23.20;47.70
19090;DHT22;9677;50.656;13.064;2023-08-24T00:21:15;23.20;47.70
19090;DHT22;9677;50.656;13.064;2023-08-24T00:23:46;23.20;47.80
19090;DHT22;9677;50.656;13.064;2023-08-24T00:26:14;23.20;47.70
19090;DHT22;9677;50.656;13.064;2023-08-24T00:28:43;23.20;47.80
19090;DHT22;9677;50.656;13.064;2023-08-24T00:31:12;23.10;47.80
19090;DHT22;9677;50.656;13.064;2023-08-24T00:33:44;23.10;47.80
19090;DHT22;9677;50.656;13.064;2023-08-24T00:36:12;23.10;47.90
19090;DHT22;9677;50.656;13.064;2023-08-24T00:38:40;23.10;48.00
19090;DHT22;9677;50.656;13.064;2023-08-24T00:41:10;23.10;48.00
19090;DHT22;9677;50.656;13.064;2023-08-24T00:43:38;23.00;47.90
19090;DHT22;9677;50.656;13.064;2023-08-24T00:46:08;23.00;47.90
19090;DHT22;9677;50.656;13.064;2023-08-24T00:48:36;23.10;48.00
19090;DHT22;9677;50.656;13.064;2023-08-24T00:51:06;23.00;48.00
19090;DHT22;9677;50.656;13.064;2023-08-24T00:53:35;23.00;48.00
19090;DHT22;9677;50.656;13.064;2023-08-24T00:56:06;23.20;48.10
19090;DHT22;9677;50.656;13.064;2023-08-24T00:58:34;22.90;48.00
19090;DHT22;9677;50.656;13.064;2023-08-24T01:01:03;22.90;48.00
19090;DHT22;9677;50.656;13.064;2023-08-24T01:03:32;22.90;47.90
19090;DHT22;9677;50.656;13.064;2023-08-24T01:06:00;22.80;48.00
19090;DHT22;9677;50.656;13.064;2023-08-24T01:08:30;22.80;48.10
19090;DHT22;9677;50.656;13.064;2023-08-24T01:11:05;22.70;48.10
19090;DHT22;9677;50.656;13.064;2023-08-24T01:13:45;22.70;48.30
19090;DHT22;9677;50.656;13.064;2023-08-24T01:16:21;22.80;48.40
19090;DHT22;9677;50.656;13.064;2023-08-24T01:18:55;22.60;48.30
19090;DHT22;9677;50.656;13.064;2023-08-24T01:21:24;22.60;48.30
19090;DHT22;9677;50.656;13.064;2023-08-24T01:24:02;22.60;48.40
19090;DHT22;9677;50.656;13.064;2023-08-24T01:26:34;22.50;48.70
19090;DHT22;9677;50.656;13.064;2023-08-24T01:29:04;22.50;48.50
19090;DHT22;9677;50.656;13.064;2023-08-24T01:31:34;22.50;48.50
19090;DHT22;9677;50.656;13.064;2023-08-24T01:34:02;22.50;48.50
19090;DHT22;9677;50.656;13.064;2023-08-24T01:36:30;22.40;48.50
19090;DHT22;9677;50.656;13.064;2023-08-24T01:39:04;22.50;48.60
19090;DHT22;9677;50.656;13.064;2023-08-24T01:41:36;22.30;48.70
19090;DHT22;9677;50.656;13.064;2023-08-24T01:44:06;22.60;48.80
19090;DHT22;9677;50.656;13.064;2023-08-24T01:46:36;22.30;48.80
19090;DHT22;9677;50.656;13.064;2023-08-24T01:49:06;22.30;48.80
19090;DHT22;9677;50.656;13.064;2023-08-24T01:51:35;22.20;48.80
19090;DHT22;9677;50.656;13.064;2023-08-24T01:54:05;22.20;48.80
19090;DHT22;9677;50.656;13.064;2023-08-24T01:56:33;22.10;48.80
19090;DHT22;9677;50.656;13.064;2023-08-24T01:59:03;22.20;48.90
19090;DHT22;9677;50.656;13.064;2023-08-24T02:01:31;22.10;49.00
19090;DHT22;9677;50.656;13.064;2023-08-24T02:03:59;22.10;49.00
19090;DHT22;9677;50.656;13.064;2023-08-24T02:06:28;22.00;49.00
19090;DHT22;9677;50.656;13.064;2023-08-24T02:08:56;22.00;49.10
19090;DHT22;9677;50.656;13.064;2023-08-24T02:11:24;22.00;49.10
19090;DHT22;9677;50.656;13.064;2023-08-24T02:13:53;22.50;49.40
19090;DHT22;9677;50.656;13.064;2023-08-24T02:16:22;21.90;49.10
19090;DHT22;9677;50.656;13.064;2023-08-24T02:18:51;21.90;49.20
19090;DHT22;9677;50.656;13.064;2023-08-24T02:21:19;21.90;49.20
19090;DHT22;9677;50.656;13.064;2023-08-24T02:23:47;21.80;49.20
19090;DHT22;9677;50.656;13.064;2023-08-24T02:26:16;21.80;49.30
19090;DHT22;9677;50.656;13.064;2023-08-24T02:28:46;21.80;49.30
19090;DHT22;9677;50.656;13.064;2023-08-24T02:31:14;21.80;49.40
19090;DHT22;9677;50.656;13.064;2023-08-24T02:33:44;21.80;49.50
19090;DHT22;9677;50.656;13.064;2023-08-24T02:36:12;21.80;49.60
19090;DHT22;9677;50.656;13.064;2023-08-24T02:38:42;21.70;49.50
19090;DHT22;9677;50.656;13.064;2023-08-24T02:41:10;21.70;49.60
19090;DHT22;9677;50.656;13.064;2023-08-24T02:43:40;21.70;49.60
19090;DHT22;9677;50.656;13.064;2023-08-24T02:46:11;21.70;49.60
19090;DHT22;9677;50.656;13.064;2023-08-24T02:48:39;21.70;49.60
19090;DHT22;9677;50.656;13.064;2023-08-24T02:51:09;21.70;49.70
19090;DHT22;9677;50.656;13.064;2023-08-24T02:53:38;21.70;49.80
19090;DHT22;9677;50.656;13.064;2023-08-24T02:56:06;21.60;49.70
19090;DHT22;9677;50.656;13.064;2023-08-24T02:58:35;21.60;49.70
19090;DHT22;9677;50.656;13.064;2023-08-24T03:01:05;22.30;50.00
19090;DHT22;9677;50.656;13.064;2023-08-24T03:03:35;21.60;49.70
19090;DHT22;9677;50.656;13.064;2023-08-24T03:06:05;21.50;49.60
19090;DHT22;9677;50.656;13.064;2023-08-24T03:08:37;21.50;49.70
19090;DHT22;9677;50.656;13.064;2023-08-24T03:11:06;21.70;49.90
19090;DHT22;9677;50.656;13.064;2023-08-24T03:13:36;21.50;49.70
19090;DHT22;9677;50.656;13.064;2023-08-24T03:16:06;21.40;49.80
19090;DHT22;9677;50.656;13.064;2023-08-24T03:18:36;21.30;49.80
19090;DHT22;9677;50.656;13.064;2023-08-24T03:21:05;21.30;49.80
19090;DHT22;9677;50.656;13.064;2023-08-24T03:23:34;21.30;49.90
19090;DHT22;9677;50.656;13.064;2023-08-24T03:26:03;21.30;50.00
19090;DHT22;9677;50.656;13.064;2023-08-24T03:28:32;21.30;50.00
19090;DHT22;9677;50.656;13.064;2023-08-24T03:31:01;21.30;50.10
19090;DHT22;9677;50.656;13.064;2023-08-24T03:33:29;21.20;50.10
19090;DHT22;9677;50.656;13.064;2023-08-24T03:36:00;21.20;50.10
19090;DHT22;9677;50.656;13.064;2023-08-24T03:38:30;21.20;50.10
19090;DHT22;9677;50.656;13.064;2023-08-24T03:41:01;21.20;50.10
19090;DHT22;9677;50.656;13.064;2023-08-24T03:43:33;21.20;50.30
19090;DHT22;9677;50.656;13.064;2023-08-24T03:46:03;21.10;50.20
19090;DHT22;9677;50.656;13.064;2023-08-24T03:48:32;21.10;50.70
19090;DHT22;9677;50.656;13.064;2023-08-24T03:51:01;21.10;50.10
19090;DHT22;9677;50.656;13.064;2023-08-24T03:53:29;21.10;50.10
19090;DHT22;9677;50.656;13.064;2023-08-24T03:55:57;21.00;50.70
19090;DHT22;9677;50.656;13.064;2023-08-24T03:58:25;21.00;50.20
19090;DHT22;9677;50.656;13.064;2023-08-24T04:00:55;20.90;50.20
19090;DHT22;9677;50.656;13.064;2023-08-24T04:03:24;21.10;50.40
19090;DHT22;9677;50.656;13.064;2023-08-24T04:05:53;20.90;50.30
19090;DHT22;9677;50.656;13.064;2023-08-24T04:08:22;20.80;50.40
19090;DHT22;9677;50.656;13.064;2023-08-24T04:10:50;20.80;51.00
19090;DHT22;9677;50.656;13.064;2023-08-24T04:13:18;20.80;50.40
19090;DHT22;9677;50.656;13.064;2023-08-24T04:15:47;20.70;50.50
19090;DHT22;9677;50.656;13.064;2023-08-24T04:18:18;20.80;50.60
19090;DHT22;9677;50.656;13.064;2023-08-24T04:20:48;20.80;50.70
19090;DHT22;9677;50.656;13.064;2023-08-24T04:23:16;20.70;50.60
19090;DHT22;9677;50.656;13.064;2023-08-24T04:25:45;20.70;50.50
19090;DHT22;9677;50.656;13.064;2023-08-24T04:28:13;20.70;50.40
19090;DHT22;9677;50.656;13.064;2023-08-24T04:30:49;21.00;50.70
19090;DHT22;9677;50.656;13.064;2023-08-24T04:33:19;20.60;50.90
19090;DHT22;9677;50.656;13.064;2023-08-24T04:35:48;20.50;50.70
19090;DHT22;9677;50.656;13.064;2023-08-24T04:38:17;20.50;50.80
19090;DHT22;9677;50.656;13.064;2023-08-24T04:40:49;20.50;50.90
19090;DHT22;9677;50.656;13.064;2023-08-24T04:43:18;20.50;51.10
19090;DHT22;9677;50.656;13.064;2023-08-24T04:45:48;20.40;51.00
19090;DHT22;9677;50.656;13.064;2023-08-24T04:48:21;20.40;51.10
19090;DHT22;9677;50.656;13.064;2023-08-24T04:50:50;20.40;51.20
19090;DHT22;9677;50.656;13.064;2023-08-24T04:53:20;20.40;51.10
19090;DHT22;9677;50.656;13.064;2023-08-24T04:55:48;20.40;51.20
19090;DHT22;9677;50.656;13.064;2023-08-24T04:58:16;20.30;51.20
19090;DHT22;9677;50.656;13.064;2023-08-24T05:00:45;20.30;51.30
19090;DHT22;9677;50.656;13.064;2023-08-24T05:03:13;20.30;51.30
19090;DHT22;9677;50.656;13.064;2023-08-24T05:05:42;20.40;51.40
19090;DHT22;9677;50.656;13.064;2023-08-24T05:08:11;20.30;51.50
19090;DHT22;9677;50.656;13.064;2023-08-24T05:10:39;20.30;51.50
19090;DHT22;9677;50.656;13.064;2023-08-24T05:13:08;20.30;51.50
19090;DHT22;9677;50.656;13.064;2023-08-24T05:15:37;20.30;51.60
19090;DHT22;9677;50.656;13.064;2023-08-24T05:18:05;20.30;51.60
19090;DHT22;9677;50.656;13.064;2023-08-24T05:20:33;20.30;51.60
19090;DHT22;9677;50.656;13.064;2023-08-24T05:23:03;20.40;51.60
19090;DHT22;9677;50.656;13.064;2023-08-24T05:25:31;20.30;51.70
19090;DHT22;9677;50.656;13.064;2023-08-24T05:28:01;20.30;51.70
19090;DHT22;9677;50.656;13.064;2023-08-24T05:30:30;20.30;51.80
19090;DHT22;9677;50.656;13.064;2023-08-24T05:32:58;20.30;51.80
19090;DHT22;9677;50.656;13.064;2023-08-24T05:35:27;20.30;51.80
19090;DHT22;9677;50.656;13.064;2023-08-24T05:37:55;20.30;51.80
19090;DHT22;9677;50.656;13.064;2023-08-24T05:40:25;20.40;51.90
19090;DHT22;9677;50.656;13.064;2023-08-24T05:42:53;20.30;51.90
19090;DHT22;9677;50.656;13.064;2023-08-24T05:45:21;20.30;51.90
19090;DHT22;9677;50.656;13.064;2023-08-24T05:47:52;20.30;51.80
19090;DHT22;9677;50.656;13.064;2023-08-24T05:50:21;20.30;51.90
19090;DHT22;9677;50.656;13.064;2023-08-24T05:52:49;20.40;52.20
19090;DHT22;9677;50.656;13.064;2023-08-24T05:55:17;20.30;52.20
19090;DHT22;9677;50.656;13.064;2023-08-24T05:57:47;20.40;52.30
19090;DHT22;9677;50.656;13.064;2023-08-24T06:00:16;20.40;52.40
19090;DHT22;9677;50.656;13.064;2023-08-24T06:02:45;20.40;52.40
19090;DHT22;9677;50.656;13.064;2023-08-24T06:05:13;20.40;52.40
19090;DHT22;9677;50.656;13.064;2023-08-24T06:07:44;20.40;52.50
19090;DHT22;9677;50.656;13.064;2023-08-24T06:10:13;20.40;52.50
19090;DHT22;9677;50.656;13.064;2023-08-24T06:12:41;20.50;52.50
19090;DHT22;9677;50.656;13.064;2023-08-24T06:15:11;20.50;52.50
19090;DHT22;9677;50.656;13.064;2023-08-24T06:17:40;20.50;52.60
19090;DHT22;9677;50.656;13.064;2023-08-24T06:20:10;20.50;52.70
19090;DHT22;9677;50.656;13.064;2023-08-24T06:22:40;20.60;52.80
19090;DHT22;9677;50.656;13.064;2023-08-24T06:25:09;20.60;52.70
19090;DHT22;9677;50.656;13.064;2023-08-24T06:27:37;20.70;52.80
19090;DHT22;9677;50.656;13.064;2023-08-24T06:30:06;20.70;52.80
19090;DHT22;9677;50.656;13.064;2023-08-24T06:32:36;20.70;52.90
19090;DHT22;9677;50.656;13.064;2023-08-24T06:35:05;20.70;53.00
19090;DHT22;9677;50.656;13.064;2023-08-24T06:37:33;20.70;53.00
19090;DHT22;9677;50.656;13.064;2023-08-24T06:40:02;20.70;53.00
19090;DHT22;9677;50.656;13.064;2023-08-24T06:42:32;20.80;53.10
19090;DHT22;9677;50.656;13.064;2023-08-24T06:45:00;20.80;53.00
19090;DHT22;9677;50.656;13.064;2023-08-24T06:47:28;21.60;53.40
19090;DHT22;9677;50.656;13.064;2023-08-24T06:49:58;20.90;53.20
19090;DHT22;9677;50.656;13.064;2023-08-24T06:52:26;21.00;53.30
19090;DHT22;9677;50.656;13.064;2023-08-24T06:54:55;21.00;53.30
19090;DHT22;9677;50.656;13.064;2023-08-24T06:57:23;21.10;53.30
19090;DHT22;9677;50.656;13.064;2023-08-24T06:59:51;21.20;53.40
19090;DHT22;9677;50.656;13.064;2023-08-24T07:02:19;21.40;53.50
19090;DHT22;9677;50.656;13.064;2023-08-24T07:04:48;21.20;53.60
19090;DHT22;9677;50.656;13.064;2023-08-24T07:07:17;21.30;53.50
19090;DHT22;9677;50.656;13.064;2023-08-24T07:09:46;21.30;53.60
19090;DHT22;9677;50.656;13.064;2023-08-24T07:12:14;21.40;53.60
19090;DHT22;9677;50.656;13.064;2023-08-24T07:14:42;21.40;53.60
19090;DHT22;9677;50.656;13.064;2023-08-24T07:17:10;21.50;53.70
19090;DHT22;9677;50.656;13.064;2023-08-24T07:19:38;21.50;53.70
19090;DHT22;9677;50.656;13.064;2023-08-24T07:22:07;21.60;53.70
19090;DHT22;9677;50.656;13.064;2023-08-24T07:24:36;21.70;53.70
19090;DHT22;9677;50.656;13.064;2023-08-24T07:27:10;21.60;53.70
19090;DHT22;9677;50.656;13.064;2023-08-24T07:29:38;21.80;53.80
19090;DHT22;9677;50.656;13.064;2023-08-24T07:32:06;21.90;53.90
19090;DHT22;9677;50.656;13.064;2023-08-24T07:34:34;21.90;53.80
19090;DHT22;9677;50.656;13.064;2023-08-24T07:37:03;22.10;53.90
19090;DHT22;9677;50.656;13.064;2023-08-24T07:39:32;22.10;53.80
19090;DHT22;9677;50.656;13.064;2023-08-24T07:42:02;22.20;54.00
19090;DHT22;9677;50.656;13.064;2023-08-24T07:44:30;22.20;54.00
19090;DHT22;9677;50.656;13.064;2023-08-24T07:46:58;22.30;53.90
19090;DHT22;9677;50.656;13.064;2023-08-24T07:49:27;22.30;53.90
19090;DHT22;9677;50.656;13.064;2023-08-24T07:51:55;22.40;53.90
19090;DHT22;9677;50.656;13.064;2023-08-24T07:54:25;22.50;54.00
19090;DHT22;9677;50.656;13.064;2023-08-24T07:56:53;22.60;54.00
19090;DHT22;9677;50.656;13.064;2023-08-24T07:59:23;22.60;54.10
19090;DHT22;9677;50.656;13.064;2023-08-24T08:01:51;22.80;54.20
19090;DHT22;9677;50.656;13.064;2023-08-24T08:04:20;23.00;54.20
19090;DHT22;9677;50.656;13.064;2023-08-24T08:06:48;22.90;54.10
19090;DHT22;9677;50.656;13.064;2023-08-24T08:09:16;23.00;54.00
19090;DHT22;9677;50.656;13.064;2023-08-24T08:11:44;23.10;54.00
19090;DHT22;9677;50.656;13.064;2023-08-24T08:14:13;23.20;53.90
19090;DHT22;9677;50.656;13.064;2023-08-24T08:16:43;23.30;53.90
19090;DHT22;9677;50.656;13.064;2023-08-24T08:19:11;23.40;53.90
19090;DHT22;9677;50.656;13.064;2023-08-24T08:21:39;24.30;54.10
19090;DHT22;9677;50.656;13.064;2023-08-24T08:24:07;23.60;53.70
19090;DHT22;9677;50.656;13.064;2023-08-24T08:26:35;23.70;53.60
19090;DHT22;9677;50.656;13.064;2023-08-24T08:29:04;23.80;53.80
19090;DHT22;9677;50.656;13.064;2023-08-24T08:31:32;23.80;53.50
19090;DHT22;9677;50.656;13.064;2023-08-24T08:34:02;24.00;53.40
19090;DHT22;9677;50.656;13.064;2023-08-24T08:36:31;24.20;53.40
19090;DHT22;9677;50.656;13.064;2023-08-24T08:38:59;24.30;53.20
19090;DHT22;9677;50.656;13.064;2023-08-24T08:41:31;24.40;53.10
19090;DHT22;9677;50.656;13.064;2023-08-24T08:44:05;24.30;53.10
19090;DHT22;9677;50.656;13.064;2023-08-24T08:46:34;24.30;53.00
19090;DHT22;9677;50.656;13.064;2023-08-24T08:49:05;24.50;52.80
19090;DHT22;9677;50.656;13.064;2023-08-24T08:51:36;24.50;52.70
19090;DHT22;9677;50.656;13.064;2023-08-24T08:54:05;24.70;52.70
19090;DHT22;9677;50.656;13.064;2023-08-24T08:56:33;24.70;52.70
19090;DHT22;9677;50.656;13.064;2023-08-24T08:59:02;25.00;52.50
19090;DHT22;9677;50.656;13.064;2023-08-24T09:01:32;24.90;52.40
19090;DHT22;9677;50.656;13.064;2023-08-24T09:04:00;25.00;52.40
19090;DHT22;9677;50.656;13.064;2023-08-24T09:06:31;25.20;52.30
19090;DHT22;9677;50.656;13.064;2023-08-24T09:09:00;25.20;52.10
19090;DHT22;9677;50.656;13.064;2023-08-24T09:11:29;25.30;52.00
19090;DHT22;9677;50.656;13.064;2023-08-24T09:13:57;25.40;51.80
19090;DHT22;9677;50.656;13.064;2023-08-24T09:16:29;25.50;51.60
19090;DHT22;9677;50.656;13.064;2023-08-24T09:18:57;25.50;51.40
19090;DHT22;9677;50.656;13.064;2023-08-24T09:21:26;25.60;51.40
19090;DHT22;9677;50.656;13.064;2023-08-24T09:23:56;26.10;51.60
19090;DHT22;9677;50.656;13.064;2023-08-24T09:26:28;26.00;51.40
19090;DHT22;9677;50.656;13.064;2023-08-24T09:28:57;25.90;51.20
19090;DHT22;9677;50.656;13.064;2023-08-24T09:31:34;26.10;51.40
19090;DHT22;9677;50.656;13.064;2023-08-24T09:34:04;26.20;51.50
19090;DHT22;9677;50.656;13.064;2023-08-24T09:36:33;26.30;51.60
19090;DHT22;9677;50.656;13.064;2023-08-24T09:39:04;26.40;51.10
19090;DHT22;9677;50.656;13.064;2023-08-24T09:41:40;26.50;51.00
19090;DHT22;9677;50.656;13.064;2023-08-24T09:44:09;26.60;50.90
19090;DHT22;9677;50.656;13.064;2023-08-24T09:46:37;26.80;50.70
19090;DHT22;9677;50.656;13.064;2023-08-24T09:49:07;26.90;50.60
19090;DHT22;9677;50.656;13.064;2023-08-24T09:51:38;27.10;50.40
19090;DHT22;9677;50.656;13.064;2023-08-24T09:54:09;27.30;50.30
19090;DHT22;9677;50.656;13.064;2023-08-24T09:56:39;27.30;50.30
19090;DHT22;9677;50.656;13.064;2023-08-24T09:59:11;27.50;50.30
19090;DHT22;9677;50.656;13.064;2023-08-24T10:01:42;27.60;50.40
19090;DHT22;9677;50.656;13.064;2023-08-24T10:04:12;27.70;50.10
19090;DHT22;9677;50.656;13.064;2023-08-24T10:06:42;27.80;49.90
19090;DHT22;9677;50.656;13.064;2023-08-24T10:09:19;28.00;49.70
19090;DHT22;9677;50.656;13.064;2023-08-24T10:11:53;28.10;49.60
19090;DHT22;9677;50.656;13.064;2023-08-24T10:14:29;28.30;49.60
19090;DHT22;9677;50.656;13.064;2023-08-24T10:16:59;28.40;49.70
19090;DHT22;9677;50.656;13.064;2023-08-24T10:19:28;28.50;49.50
19090;DHT22;9677;50.656;13.064;2023-08-24T10:21:57;28.70;49.40
19090;DHT22;9677;50.656;13.064;2023-08-24T10:24:29;28.80;49.40
19090;DHT22;9677;50.656;13.064;2023-08-24T10:27:00;28.90;49.00
19090;DHT22;9677;50.656;13.064;2023-08-24T10:29:30;29.10;49.00
19090;DHT22;9677;50.656;13.064;2023-08-24T10:31:58;29.20;48.90
19090;DHT22;9677;50.656;13.064;2023-08-24T10:34:27;29.40;48.70
19090;DHT22;9677;50.656;13.064;2023-08-24T10:36:55;29.40;48.40
19090;DHT22;9677;50.656;13.064;2023-08-24T10:39:28;29.60;48.30
19090;DHT22;9677;50.656;13.064;2023-08-24T10:42:01;29.70;48.20
19090;DHT22;9677;50.656;13.064;2023-08-24T10:44:34;29.90;48.00
19090;DHT22;9677;50.656;13.064;2023-08-24T10:47:10;30.00;47.70
19090;DHT22;9677;50.656;13.064;2023-08-24T10:49:40;30.00;47.30
19090;DHT22;9677;50.656;13.064;2023-08-24T10:52:23;29.90;47.40
19090;DHT22;9677;50.656;13.064;2023-08-24T10:54:53;30.00;46.80
19090;DHT22;9677;50.656;13.064;2023-08-24T10:57:24;30.20;47.20
19090;DHT22;9677;50.656;13.064;2023-08-24T10:59:58;30.00;47.00
19090;DHT22;9677;50.656;13.064;2023-08-24T11:02:27;30.10;46.90
19090;DHT22;9677;50.656;13.064;2023-08-24T11:05:20;30.10;46.90
19090;DHT22;9677;50.656;13.064;2023-08-24T11:07:51;30.00;46.60
19090;DHT22;9677;50.656;13.064;2023-08-24T11:10:23;30.30;46.90
19090;DHT22;9677;50.656;13.064;2023-08-24T11:13:10;30.00;46.70
19090;DHT22;9677;50.656;13.064;2023-08-24T11:15:41;30.30;46.90
19090;DHT22;9677;50.656;13.064;2023-08-24T11:18:28;30.10;47.20
19090;DHT22;9677;50.656;13.064;2023-08-24T11:21:00;30.10;47.10
19090;DHT22;9677;50.656;13.064;2023-08-24T11:23:29;30.20;47.40
19090;DHT22;9677;50.656;13.064;2023-08-24T11:26:00;30.80;47.70
19090;DHT22;9677;50.656;13.064;2023-08-24T11:28:29;30.50;47.60
19090;DHT22;9677;50.656;13.064;2023-08-24T11:30:58;30.40;47.50
19090;DHT22;9677;50.656;13.064;2023-08-24T11:33:28;30.50;47.40
19090;DHT22;9677;50.656;13.064;2023-08-24T11:35:58;30.60;47.30
19090;DHT22;9677;50.656;13.064;2023-08-24T11:38:35;30.70;47.20
19090;DHT22;9677;50.656;13.064;2023-08-24T11:41:12;30.90;46.60
19090;DHT22;9677;50.656;13.064;2023-08-24T11:43:42;31.00;47.00
19090;DHT22;9677;50.656;13.064;2023-08-24T11:46:10;31.00;46.90
19090;DHT22;9677;50.656;13.064;2023-08-24T11:48:39;31.20;46.90
19090;DHT22;9677;50.656;13.064;2023-08-24T11:51:09;31.30;46.50
19090;DHT22;9677;50.656;13.064;2023-08-24T11:53:40;31.30;46.30
19090;DHT22;9677;50.656;13.064;2023-08-24T11:56:09;31.30;46.00
19090;DHT22;9677;50.656;13.064;2023-08-24T11:58:40;31.10;45.70
19090;DHT22;9677;50.656;13.064;2023-08-24T12:01:10;31.30;45.70
19090;DHT22;9677;50.656;13.064;2023-08-24T12:03:39;31.60;45.90
19090;DHT22;9677;50.656;13.064;2023-08-24T12:06:12;31.40;46.40
19090;DHT22;9677;50.656;13.064;2023-08-24T12:08:42;31.50;45.40
19090;DHT22;9677;50.656;13.064;2023-08-24T12:11:14;31.40;45.40
19090;DHT22;9677;50.656;13.064;2023-08-24T12:13:45;31.30;45.30
19090;DHT22;9677;50.656;13.064;2023-08-24T12:16:15;31.60;45.50
19090;DHT22;9677;50.656;13.064;2023-08-24T12:18:49;31.40;45.40
19090;DHT22;9677;50.656;13.064;2023-08-24T12:21:19;31.40;45.40
19090;DHT22;9677;50.656;13.064;2023-08-24T12:23:58;31.40;45.20
19090;DHT22;9677;50.656;13.064;2023-08-24T12:26:28;31.40;45.10
19090;DHT22;9677;50.656;13.064;2023-08-24T12:29:02;31.40;45.50
19090;DHT22;9677;50.656;13.064;2023-08-24T12:31:32;31.30;45.40
19090;DHT22;9677;50.656;13.064;2023-08-24T12:34:02;31.40;45.60
19090;DHT22;9677;50.656;13.064;2023-08-24T12:36:36;31.60;45.80
19090;DHT22;9677;50.656;13.064;2023-08-24T12:39:06;31.70;45.90
19090;DHT22;9677;50.656;13.064;2023-08-24T12:41:37;31.70;45.90
19090;DHT22;9677;50.656;13.064;2023-08-24T12:44:08;31.80;45.40
19090;DHT22;9677;50.656;13.064;2023-08-24T12:46:41;31.90;45.30
19090;DHT22;9677;50.656;13.064;2023-08-24T12:49:10;31.90;45.50
19090;DHT22;9677;50.656;13.064;2023-08-24T12:51:39;31.50;44.70
19090;DHT22;9677;50.656;13.064;2023-08-24T12:54:08;31.90;44.90
19090;DHT22;9677;50.656;13.064;2023-08-24T12:56:38;31.80;44.50
19090;DHT22;9677;50.656;13.064;2023-08-24T12:59:09;31.90;44.70
19090;DHT22;9677;50.656;13.064;2023-08-24T13:01:39;32.10;44.50
19090;DHT22;9677;50.656;13.064;2023-08-24T13:04:11;31.90;44.40
19090;DHT22;9677;50.656;13.064;2023-08-24T13:06:39;32.20;44.60
19090;DHT22;9677;50.656;13.064;2023-08-24T13:09:07;32.10;45.10
19090;DHT22;9677;50.656;13.064;2023-08-24T13:11:38;32.10;44.90
19090;DHT22;9677;50.656;13.064;2023-08-24T13:14:06;32.20;44.80
19090;DHT22;9677;50.656;13.064;2023-08-24T13:16:36;32.30;44.70
19090;DHT22;9677;50.656;13.064;2023-08-24T13:19:05;32.40;44.40
19090;DHT22;9677;50.656;13.064;2023-08-24T13:21:34;32.40;44.10
19090;DHT22;9677;50.656;13.064;2023-08-24T13:24:02;32.40;43.80
19090;DHT22;9677;50.656;13.064;2023-08-24T13:26:30;32.50;43.40
19090;DHT22;9677;50.656;13.064;2023-08-24T13:28:59;32.50;43.20
19090;DHT22;9677;50.656;13.064;2023-08-24T13:31:29;32.50;43.30
19090;DHT22;9677;50.656;13.064;2023-08-24T13:33:57;32.70;43.20
19090;DHT22;9677;50.656;13.064;2023-08-24T13:36:25;32.80;43.20
19090;DHT22;9677;50.656;13.064;2023-08-24T13:38:54;32.80;43.10
19090;DHT22;9677;50.656;13.064;2023-08-24T13:41:22;32.80;43.20
19090;DHT22;9677;50.656;13.064;2023-08-24T13:43:50;32.90;43.10
19090;DHT22;9677;50.656;13.064;2023-08-24T13:46:18;33.00;43.10
19090;DHT22;9677;50.656;13.064;2023-08-24T13:48:48;33.00;43.00
19090;DHT22;9677;50.656;13.064;2023-08-24T13:51:16;33.00;42.30
19090;DHT22;9677;50.656;13.064;2023-08-24T13:53:44;33.10;42.30
19090;DHT22;9677;50.656;13.064;2023-08-24T13:56:13;33.10;42.30
19090;DHT22;9677;50.656;13.064;2023-08-24T13:58:41;33.20;42.10
19090;DHT22;9677;50.656;13.064;2023-08-24T14:01:09;33.20;41.90
19090;DHT22;9677;50.656;13.064;2023-08-24T14:03:39;33.30;42.00
19090;DHT22;9677;50.656;13.064;2023-08-24T14:06:11;33.20;42.00
19090;DHT22;9677;50.656;13.064;2023-08-24T14:08:40;33.30;42.00
19090;DHT22;9677;50.656;13.064;2023-08-24T14:11:09;33.30;41.60
19090;DHT22;9677;50.656;13.064;2023-08-24T14:13:40;33.50;41.80
19090;DHT22;9677;50.656;13.064;2023-08-24T14:16:08;33.40;41.70
19090;DHT22;9677;50.656;13.064;2023-08-24T14:18:37;33.50;41.70
19090;DHT22;9677;50.656;13.064;2023-08-24T14:21:05;33.60;41.80
19090;DHT22;9677;50.656;13.064;2023-08-24T14:23:36;33.40;41.50
19090;DHT22;9677;50.656;13.064;2023-08-24T14:26:05;33.60;41.50
19090;DHT22;9677;50.656;13.064;2023-08-24T14:28:50;33.50;41.70
19090;DHT22;9677;50.656;13.064;2023-08-24T14:31:20;33.50;40.60
19090;DHT22;9677;50.656;13.064;2023-08-24T14:33:49;33.50;41.10
19090;DHT22;9677;50.656;13.064;2023-08-24T14:36:18;33.50;40.90
19090;DHT22;9677;50.656;13.064;2023-08-24T14:38:48;33.50;41.00
19090;DHT22;9677;50.656;13.064;2023-08-24T14:41:18;33.50;40.90
19090;DHT22;9677;50.656;13.064;2023-08-24T14:43:47;33.40;40.90
19090;DHT22;9677;50.656;13.064;2023-08-24T14:46:15;33.40;40.90
19090;DHT22;9677;50.656;13.064;2023-08-24T14:48:43;33.40;40.90
19090;DHT22;9677;50.656;13.064;2023-08-24T14:51:12;33.50;40.80
19090;DHT22;9677;50.656;13.064;2023-08-24T14:53:40;33.50;40.90
19090;DHT22;9677;50.656;13.064;2023-08-24T14:56:09;33.40;41.50
19090;DHT22;9677;50.656;13.064;2023-08-24T14:58:38;33.50;40.90
19090;DHT22;9677;50.656;13.064;2023-08-24T15:01:06;33.50;40.80
19090;DHT22;9677;50.656;13.064;2023-08-24T15:03:35;33.50;40.90
19090;DHT22;9677;50.656;13.064;2023-08-24T15:06:04;33.60;40.80
19090;DHT22;9677;50.656;13.064;2023-08-24T15:08:35;33.60;40.90
19090;DHT22;9677;50.656;13.064;2023-08-24T15:11:03;33.50;40.90
19090;DHT22;9677;50.656;13.064;2023-08-24T15:13:38;33.50;40.90
19090;DHT22;9677;50.656;13.064;2023-08-24T15:16:06;33.60;40.80
19090;DHT22;9677;50.656;13.064;2023-08-24T15:18:36;33.60;40.80
19090;DHT22;9677;50.656;13.064;2023-08-24T15:21:04;33.60;40.80
19090;DHT22;9677;50.656;13.064;2023-08-24T15:23:32;33.60;40.60
19090;DHT22;9677;50.656;13.064;2023-08-24T15:26:01;33.60;40.70
19090;DHT22;9677;50.656;13.064;2023-08-24T15:28:37;33.60;40.40
19090;DHT22;9677;50.656;13.064;2023-08-24T15:31:25;33.80;40.00
19090;DHT22;9677;50.656;13.064;2023-08-24T15:33:54;33.60;40.30
19090;DHT22;9677;50.656;13.064;2023-08-24T15:36:22;33.60;40.20
19090;DHT22;9677;50.656;13.064;2023-08-24T15:38:51;33.50;40.10
19090;DHT22;9677;50.656;13.064;2023-08-24T15:41:19;33.60;40.20
19090;DHT22;9677;50.656;13.064;2023-08-24T15:43:48;33.50;40.30
19090;DHT22;9677;50.656;13.064;2023-08-24T15:46:16;33.60;40.40